sensor_id;sensor_type;location;lat;lon;timestamp;P1;durP1;ratioP1;P2;durP2;ratioP2
18501;SDS011;68437;52.236;5.710;2023-03-31T00:01:49;32.38;;;4.85;;
18501;SDS011;68437;52.236;5.710;2023-03-31T00:04:18;19.50;;;4.38;;
18501;SDS011;68437;52.236;5.710;2023-03-31T00:06:47;27.85;;;4.68;;
18501;SDS011;68437;52.236;5.710;2023-03-31T00:09:18;25.80;;;4.97;;
18501;SDS011;68437;52.236;5.710;2023-03-31T00:11:47;25.08;;;5.32;;
18501;SDS011;68437;52.236;5.710;2023-03-31T00:14:14;22.67;;;5.15;;
18501;SDS011;68437;52.236;5.710;2023-03-31T00:16:43;26.90;;;5.82;;
18501;SDS011;68437;52.236;5.710;2023-03-31T00:19:10;25.75;;;5.22;;
18501;SDS011;68437;52.236;5.710;2023-03-31T00:21:42;26.98;;;5.85;;
18501;SDS011;68437;52.236;5.710;2023-03-31T00:24:09;18.33;;;5.45;;
18501;SDS011;68437;52.236;5.710;2023-03-31T00:26:37;24.98;;;5.60;;
18501;SDS011;68437;52.236;5.710;2023-03-31T00:29:09;22.25;;;5.53;;
18501;SDS011;68437;52.236;5.710;2023-03-31T00:31:38;28.17;;;5.03;;
18501;SDS011;68437;52.236;5.710;2023-03-31T00:34:05;20.17;;;5.22;;
18501;SDS011;68437;52.236;5.710;2023-03-31T00:36:32;25.92;;;5.72;;
18501;SDS011;68437;52.236;5.710;2023-03-31T00:39:11;19.23;;;4.68;;
18501;SDS011;68437;52.236;5.710;2023-03-31T00:41:41;21.20;;;5.68;;
18501;SDS011;68437;52.236;5.710;2023-03-31T00:44:11;23.58;;;5.10;;
18501;SDS011;68437;52.236;5.710;2023-03-31T00:46:43;25.38;;;5.65;;
18501;SDS011;68437;52.236;5.710;2023-03-31T00:49:16;18.80;;;5.00;;
18501;SDS011;68437;52.236;5.710;2023-03-31T00:51:48;16.73;;;5.05;;
18501;SDS011;68437;52.236;5.710;2023-03-31T00:54:19;27.10;;;5.18;;
18501;SDS011;68437;52.236;5.710;2023-03-31T00:56:50;20.65;;;5.10;;
18501;SDS011;68437;52.236;5.710;2023-03-31T00:59:24;16.15;;;4.85;;
18501;SDS011;68437;52.236;5.710;2023-03-31T01:01:53;20.05;;;5.18;;
18501;SDS011;68437;52.236;5.710;2023-03-31T01:04:26;24.33;;;5.05;;
18501;SDS011;68437;52.236;5.710;2023-03-31T01:06:57;21.50;;;4.80;;
18501;SDS011;68437;52.236;5.710;2023-03-31T01:09:29;21.85;;;4.63;;
18501;SDS011;68437;52.236;5.710;2023-03-31T01:11:59;19.55;;;4.60;;
18501;SDS011;68437;52.236;5.710;2023-03-31T01:14:32;21.98;;;4.63;;
18501;SDS011;68437;52.236;5.710;2023-03-31T01:16:59;20.02;;;4.88;;
18501;SDS011;68437;52.236;5.710;2023-03-31T01:19:28;24.88;;;4.63;;
18501;SDS011;68437;52.236;5.710;2023-03-31T01:22:13;21.63;;;5.07;;
18501;SDS011;68437;52.236;5.710;2023-03-31T01:28:06;17.52;;;4.20;;
18501;SDS011;68437;52.236;5.710;2023-03-31T01:30:48;23.05;;;4.82;;
18501;SDS011;68437;52.236;5.710;2023-03-31T01:33:53;17.58;;;4.35;;
18501;SDS011;68437;52.236;5.710;2023-03-31T01:36:42;17.20;;;4.35;;
18501;SDS011;68437;52.236;5.710;2023-03-31T01:42:48;16.58;;;4.63;;
18501;SDS011;68437;52.236;5.710;2023-03-31T01:45:22;12.25;;;4.22;;
18501;SDS011;68437;52.236;5.710;2023-03-31T01:47:58;18.88;;;4.50;;
18501;SDS011;68437;52.236;5.710;2023-03-31T01:50:34;22.70;;;4.82;;
18501;SDS011;68437;52.236;5.710;2023-03-31T01:53:09;17.40;;;4.60;;
18501;SDS011;68437;52.236;5.710;2023-03-31T01:55:50;19.10;;;4.43;;
18501;SDS011;68437;52.236;5.710;2023-03-31T01:58:28;20.55;;;4.30;;
18501;SDS011;68437;52.236;5.710;2023-03-31T02:00:58;16.88;;;4.88;;
18501;SDS011;68437;52.236;5.710;2023-03-31T02:03:28;14.13;;;4.65;;
18501;SDS011;68437;52.236;5.710;2023-03-31T02:05:59;15.13;;;5.20;;
18501;SDS011;68437;52.236;5.710;2023-03-31T02:08:33;16.80;;;4.70;;
18501;SDS011;68437;52.236;5.710;2023-03-31T02:11:05;15.10;;;5.05;;
18501;SDS011;68437;52.236;5.710;2023-03-31T02:13:33;14.55;;;5.10;;
18501;SDS011;68437;52.236;5.710;2023-03-31T02:16:04;15.95;;;5.57;;
18501;SDS011;68437;52.236;5.710;2023-03-31T02:18:35;22.60;;;5.57;;
18501;SDS011;68437;52.236;5.710;2023-03-31T02:21:06;19.65;;;5.88;;
18501;SDS011;68437;52.236;5.710;2023-03-31T02:23:33;18.73;;;5.68;;
18501;SDS011;68437;52.236;5.710;2023-03-31T02:26:03;23.05;;;6.45;;
18501;SDS011;68437;52.236;5.710;2023-03-31T02:28:36;17.08;;;5.80;;
18501;SDS011;68437;52.236;5.710;2023-03-31T02:31:05;15.13;;;5.68;;
18501;SDS011;68437;52.236;5.710;2023-03-31T02:33:42;20.17;;;5.82;;
18501;SDS011;68437;52.236;5.710;2023-03-31T02:36:09;19.83;;;5.90;;
18501;SDS011;68437;52.236;5.710;2023-03-31T02:38:38;28.38;;;6.45;;
18501;SDS011;68437;52.236;5.710;2023-03-31T02:41:10;24.10;;;5.60;;
18501;SDS011;68437;52.236;5.710;2023-03-31T02:43:39;20.55;;;5.65;;
18501;SDS011;68437;52.236;5.710;2023-03-31T02:46:06;22.02;;;5.60;;
18501;SDS011;68437;52.236;5.710;2023-03-31T02:48:34;19.48;;;5.07;;
18501;SDS011;68437;52.236;5.710;2023-03-31T02:54:25;17.38;;;5.45;;
18501;SDS011;68437;52.236;5.710;2023-03-31T02:57:10;19.80;;;5.82;;
18501;SDS011;68437;52.236;5.710;2023-03-31T02:59:56;21.05;;;5.30;;
18501;SDS011;68437;52.236;5.710;2023-03-31T03:02:35;23.65;;;5.90;;
18501;SDS011;68437;52.236;5.710;2023-03-31T03:05:15;22.00;;;5.57;;
18501;SDS011;68437;52.236;5.710;2023-03-31T03:07:48;22.02;;;5.50;;
18501;SDS011;68437;52.236;5.710;2023-03-31T03:10:24;21.35;;;6.05;;
18501;SDS011;68437;52.236;5.710;2023-03-31T03:13:00;27.98;;;6.57;;
18501;SDS011;68437;52.236;5.710;2023-03-31T03:15:40;21.33;;;6.75;;
18501;SDS011;68437;52.236;5.710;2023-03-31T03:18:11;20.70;;;6.53;;
18501;SDS011;68437;52.236;5.710;2023-03-31T03:20:40;25.75;;;6.20;;
18501;SDS011;68437;52.236;5.710;2023-03-31T03:23:12;20.75;;;5.93;;
18501;SDS011;68437;52.236;5.710;2023-03-31T03:25:39;16.60;;;5.40;;
18501;SDS011;68437;52.236;5.710;2023-03-31T03:28:06;17.75;;;5.28;;
18501;SDS011;68437;52.236;5.710;2023-03-31T03:30:33;16.25;;;4.85;;
18501;SDS011;68437;52.236;5.710;2023-03-31T03:33:01;12.52;;;4.90;;
18501;SDS011;68437;52.236;5.710;2023-03-31T03:35:30;17.45;;;4.38;;
18501;SDS011;68437;52.236;5.710;2023-03-31T03:37:57;15.80;;;3.90;;
18501;SDS011;68437;52.236;5.710;2023-03-31T03:40:24;14.15;;;3.70;;
18501;SDS011;68437;52.236;5.710;2023-03-31T03:42:51;15.52;;;3.88;;
18501;SDS011;68437;52.236;5.710;2023-03-31T03:45:17;15.63;;;3.70;;
18501;SDS011;68437;52.236;5.710;2023-03-31T03:47:44;17.63;;;4.00;;
18501;SDS011;68437;52.236;5.710;2023-03-31T03:50:12;14.98;;;3.85;;
18501;SDS011;68437;52.236;5.710;2023-03-31T03:52:39;17.45;;;4.20;;
18501;SDS011;68437;52.236;5.710;2023-03-31T03:55:06;16.92;;;4.13;;
18501;SDS011;68437;52.236;5.710;2023-03-31T03:57:36;19.65;;;5.00;;
18501;SDS011;68437;52.236;5.710;2023-03-31T04:00:03;23.13;;;4.72;;
18501;SDS011;68437;52.236;5.710;2023-03-31T04:02:36;20.65;;;4.80;;
18501;SDS011;68437;52.236;5.710;2023-03-31T04:05:03;17.17;;;5.43;;
18501;SDS011;68437;52.236;5.710;2023-03-31T04:07:32;19.20;;;4.70;;
18501;SDS011;68437;52.236;5.710;2023-03-31T04:09:58;22.17;;;4.50;;
18501;SDS011;68437;52.236;5.710;2023-03-31T04:12:25;18.77;;;4.20;;
18501;SDS011;68437;52.236;5.710;2023-03-31T04:14:52;15.45;;;4.50;;
18501;SDS011;68437;52.236;5.710;2023-03-31T04:17:19;16.75;;;4.20;;
18501;SDS011;68437;52.236;5.710;2023-03-31T04:19:57;14.57;;;4.32;;
18501;SDS011;68437;52.236;5.710;2023-03-31T04:22:31;18.08;;;4.10;;
18501;SDS011;68437;52.236;5.710;2023-03-31T04:25:00;16.40;;;4.10;;
18501;SDS011;68437;52.236;5.710;2023-03-31T04:27:27;17.55;;;3.70;;
18501;SDS011;68437;52.236;5.710;2023-03-31T04:29:55;20.13;;;3.90;;
18501;SDS011;68437;52.236;5.710;2023-03-31T04:32:22;12.40;;;3.03;;
18501;SDS011;68437;52.236;5.710;2023-03-31T04:34:49;20.45;;;3.65;;
18501;SDS011;68437;52.236;5.710;2023-03-31T04:37:16;11.38;;;3.20;;
18501;SDS011;68437;52.236;5.710;2023-03-31T04:39:44;16.50;;;3.40;;
18501;SDS011;68437;52.236;5.710;2023-03-31T04:42:14;14.52;;;3.58;;
18501;SDS011;68437;52.236;5.710;2023-03-31T04:44:41;18.45;;;4.10;;
18501;SDS011;68437;52.236;5.710;2023-03-31T04:47:08;13.98;;;3.47;;
18501;SDS011;68437;52.236;5.710;2023-03-31T04:49:35;13.85;;;4.10;;
18501;SDS011;68437;52.236;5.710;2023-03-31T04:52:01;21.30;;;4.35;;
18501;SDS011;68437;52.236;5.710;2023-03-31T04:54:28;20.38;;;4.50;;
18501;SDS011;68437;52.236;5.710;2023-03-31T04:56:56;17.92;;;4.22;;
18501;SDS011;68437;52.236;5.710;2023-03-31T04:59:23;15.05;;;4.70;;
18501;SDS011;68437;52.236;5.710;2023-03-31T05:01:51;16.58;;;4.55;;
18501;SDS011;68437;52.236;5.710;2023-03-31T05:04:18;17.15;;;4.80;;
18501;SDS011;68437;52.236;5.710;2023-03-31T05:06:45;15.65;;;4.30;;
18501;SDS011;68437;52.236;5.710;2023-03-31T05:09:11;20.65;;;4.78;;
18501;SDS011;68437;52.236;5.710;2023-03-31T05:11:38;18.77;;;5.30;;
18501;SDS011;68437;52.236;5.710;2023-03-31T05:14:06;18.33;;;5.60;;
18501;SDS011;68437;52.236;5.710;2023-03-31T05:16:33;21.23;;;6.13;;
18501;SDS011;68437;52.236;5.710;2023-03-31T05:19:00;18.35;;;6.13;;
18501;SDS011;68437;52.236;5.710;2023-03-31T05:21:27;19.00;;;5.97;;
18501;SDS011;68437;52.236;5.710;2023-03-31T05:23:54;15.70;;;6.63;;
18501;SDS011;68437;52.236;5.710;2023-03-31T05:26:22;20.90;;;6.38;;
18501;SDS011;68437;52.236;5.710;2023-03-31T05:28:49;23.55;;;6.72;;
18501;SDS011;68437;52.236;5.710;2023-03-31T05:31:17;20.65;;;6.80;;
18501;SDS011;68437;52.236;5.710;2023-03-31T05:33:45;24.63;;;6.55;;
18501;SDS011;68437;52.236;5.710;2023-03-31T05:36:13;20.33;;;6.65;;
18501;SDS011;68437;52.236;5.710;2023-03-31T05:38:41;27.10;;;6.38;;
18501;SDS011;68437;52.236;5.710;2023-03-31T05:41:08;23.38;;;6.40;;
18501;SDS011;68437;52.236;5.710;2023-03-31T05:43:36;29.35;;;6.35;;
18501;SDS011;68437;52.236;5.710;2023-03-31T05:46:04;23.38;;;5.82;;
18501;SDS011;68437;52.236;5.710;2023-03-31T05:48:32;18.73;;;5.53;;
18501;SDS011;68437;52.236;5.710;2023-03-31T05:51:01;20.10;;;5.57;;
18501;SDS011;68437;52.236;5.710;2023-03-31T05:53:28;17.05;;;5.40;;
18501;SDS011;68437;52.236;5.710;2023-03-31T05:55:55;20.65;;;5.07;;
18501;SDS011;68437;52.236;5.710;2023-03-31T05:58:23;20.13;;;5.13;;
18501;SDS011;68437;52.236;5.710;2023-03-31T06:00:58;21.17;;;5.68;;
18501;SDS011;68437;52.236;5.710;2023-03-31T06:03:26;23.20;;;5.72;;
18501;SDS011;68437;52.236;5.710;2023-03-31T06:05:54;17.70;;;5.43;;
18501;SDS011;68437;52.236;5.710;2023-03-31T06:08:21;21.65;;;5.45;;
18501;SDS011;68437;52.236;5.710;2023-03-31T06:10:49;24.05;;;5.40;;
18501;SDS011;68437;52.236;5.710;2023-03-31T06:13:16;23.85;;;5.68;;
18501;SDS011;68437;52.236;5.710;2023-03-31T06:15:43;18.27;;;5.10;;
18501;SDS011;68437;52.236;5.710;2023-03-31T06:18:18;22.02;;;5.47;;
18501;SDS011;68437;52.236;5.710;2023-03-31T06:20:48;17.92;;;5.40;;
18501;SDS011;68437;52.236;5.710;2023-03-31T06:23:17;16.70;;;5.47;;
18501;SDS011;68437;52.236;5.710;2023-03-31T06:25:46;19.58;;;5.40;;
18501;SDS011;68437;52.236;5.710;2023-03-31T06:28:16;19.30;;;5.43;;
18501;SDS011;68437;52.236;5.710;2023-03-31T06:30:43;18.42;;;5.35;;
18501;SDS011;68437;52.236;5.710;2023-03-31T06:33:10;15.32;;;4.82;;
18501;SDS011;68437;52.236;5.710;2023-03-31T06:35:37;20.35;;;5.10;;
18501;SDS011;68437;52.236;5.710;2023-03-31T06:38:04;20.23;;;4.65;;
18501;SDS011;68437;52.236;5.710;2023-03-31T06:40:33;14.98;;;4.40;;
18501;SDS011;68437;52.236;5.710;2023-03-31T06:43:02;17.48;;;4.35;;
18501;SDS011;68437;52.236;5.710;2023-03-31T06:45:31;19.08;;;4.32;;
18501;SDS011;68437;52.236;5.710;2023-03-31T06:47:58;19.33;;;4.47;;
18501;SDS011;68437;52.236;5.710;2023-03-31T06:50:25;17.92;;;4.78;;
18501;SDS011;68437;52.236;5.710;2023-03-31T06:52:52;17.88;;;4.22;;
18501;SDS011;68437;52.236;5.710;2023-03-31T06:55:19;15.52;;;4.07;;
18501;SDS011;68437;52.236;5.710;2023-03-31T06:57:47;15.00;;;4.18;;
18501;SDS011;68437;52.236;5.710;2023-03-31T07:00:14;15.65;;;4.60;;
18501;SDS011;68437;52.236;5.710;2023-03-31T07:02:42;20.98;;;4.13;;
18501;SDS011;68437;52.236;5.710;2023-03-31T07:05:09;13.48;;;4.18;;
18501;SDS011;68437;52.236;5.710;2023-03-31T07:07:35;14.82;;;4.28;;
18501;SDS011;68437;52.236;5.710;2023-03-31T07:10:02;13.18;;;4.03;;
18501;SDS011;68437;52.236;5.710;2023-03-31T07:12:31;16.23;;;4.05;;
18501;SDS011;68437;52.236;5.710;2023-03-31T07:14:59;9.80;;;3.65;;
18501;SDS011;68437;52.236;5.710;2023-03-31T07:17:26;13.77;;;3.50;;
18501;SDS011;68437;52.236;5.710;2023-03-31T07:19:53;16.77;;;4.10;;
18501;SDS011;68437;52.236;5.710;2023-03-31T07:22:19;13.23;;;3.70;;
18501;SDS011;68437;52.236;5.710;2023-03-31T07:24:46;9.43;;;3.50;;
18501;SDS011;68437;52.236;5.710;2023-03-31T07:27:13;12.65;;;3.30;;
18501;SDS011;68437;52.236;5.710;2023-03-31T07:29:40;9.82;;;3.20;;
18501;SDS011;68437;52.236;5.710;2023-03-31T07:32:08;13.68;;;3.95;;
18501;SDS011;68437;52.236;5.710;2023-03-31T07:34:35;8.15;;;3.00;;
18501;SDS011;68437;52.236;5.710;2023-03-31T07:37:03;12.50;;;2.85;;
18501;SDS011;68437;52.236;5.710;2023-03-31T07:39:30;13.60;;;2.80;;
18501;SDS011;68437;52.236;5.710;2023-03-31T07:41:57;9.80;;;2.70;;
18501;SDS011;68437;52.236;5.710;2023-03-31T07:44:23;8.60;;;2.40;;
18501;SDS011;68437;52.236;5.710;2023-03-31T07:46:51;8.00;;;2.65;;
18501;SDS011;68437;52.236;5.710;2023-03-31T07:49:19;8.45;;;2.67;;
18501;SDS011;68437;52.236;5.710;2023-03-31T07:51:46;14.07;;;2.80;;
18501;SDS011;68437;52.236;5.710;2023-03-31T07:54:13;7.88;;;2.58;;
18501;SDS011;68437;52.236;5.710;2023-03-31T07:56:40;12.02;;;2.78;;
18501;SDS011;68437;52.236;5.710;2023-03-31T07:59:07;12.73;;;3.10;;
18501;SDS011;68437;52.236;5.710;2023-03-31T08:01:34;9.82;;;3.13;;
18501;SDS011;68437;52.236;5.710;2023-03-31T08:04:03;13.20;;;3.40;;
18501;SDS011;68437;52.236;5.710;2023-03-31T08:06:31;10.38;;;3.15;;
18501;SDS011;68437;52.236;5.710;2023-03-31T08:08:58;7.78;;;3.00;;
18501;SDS011;68437;52.236;5.710;2023-03-31T08:11:25;10.60;;;3.03;;
18501;SDS011;68437;52.236;5.710;2023-03-31T08:13:52;10.95;;;2.92;;
18501;SDS011;68437;52.236;5.710;2023-03-31T08:16:19;9.48;;;2.90;;
18501;SDS011;68437;52.236;5.710;2023-03-31T08:18:46;10.27;;;2.65;;
18501;SDS011;68437;52.236;5.710;2023-03-31T08:21:12;10.73;;;2.92;;
18501;SDS011;68437;52.236;5.710;2023-03-31T08:23:41;9.30;;;2.85;;
18501;SDS011;68437;52.236;5.710;2023-03-31T08:26:08;11.75;;;2.65;;
18501;SDS011;68437;52.236;5.710;2023-03-31T08:28:36;9.55;;;2.50;;
18501;SDS011;68437;52.236;5.710;2023-03-31T08:31:03;10.32;;;3.00;;
18501;SDS011;68437;52.236;5.710;2023-03-31T08:33:31;11.40;;;3.13;;
18501;SDS011;68437;52.236;5.710;2023-03-31T08:36:00;12.55;;;3.22;;
18501;SDS011;68437;52.236;5.710;2023-03-31T08:38:28;11.07;;;3.15;;
18501;SDS011;68437;52.236;5.710;2023-03-31T08:41:00;9.25;;;3.25;;
18501;SDS011;68437;52.236;5.710;2023-03-31T08:43:28;9.27;;;3.20;;
18501;SDS011;68437;52.236;5.710;2023-03-31T08:45:58;12.93;;;3.10;;
18501;SDS011;68437;52.236;5.710;2023-03-31T08:48:28;9.35;;;3.28;;
18501;SDS011;68437;52.236;5.710;2023-03-31T08:50:59;12.15;;;3.17;;
18501;SDS011;68437;52.236;5.710;2023-03-31T08:53:30;12.18;;;3.05;;
18501;SDS011;68437;52.236;5.710;2023-03-31T08:56:04;11.18;;;3.15;;
18501;SDS011;68437;52.236;5.710;2023-03-31T08:58:35;7.07;;;2.95;;
18501;SDS011;68437;52.236;5.710;2023-03-31T09:01:07;9.60;;;3.55;;
18501;SDS011;68437;52.236;5.710;2023-03-31T09:03:43;11.68;;;3.90;;
18501;SDS011;68437;52.236;5.710;2023-03-31T09:06:23;10.73;;;3.70;;
18501;SDS011;68437;52.236;5.710;2023-03-31T09:08:57;12.57;;;4.07;;
18501;SDS011;68437;52.236;5.710;2023-03-31T09:11:31;11.35;;;4.07;;
18501;SDS011;68437;52.236;5.710;2023-03-31T09:16:53;8.05;;;3.95;;
18501;SDS011;68437;52.236;5.710;2023-03-31T09:19:29;10.23;;;4.30;;
18501;SDS011;68437;52.236;5.710;2023-03-31T09:22:01;11.52;;;4.50;;
18501;SDS011;68437;52.236;5.710;2023-03-31T09:24:32;17.70;;;5.13;;
18501;SDS011;68437;52.236;5.710;2023-03-31T09:27:05;20.48;;;5.28;;
18501;SDS011;68437;52.236;5.710;2023-03-31T09:29:35;23.98;;;5.70;;
18501;SDS011;68437;52.236;5.710;2023-03-31T09:32:11;21.33;;;5.32;;
18501;SDS011;68437;52.236;5.710;2023-03-31T09:34:41;30.85;;;8.32;;
18501;SDS011;68437;52.236;5.710;2023-03-31T09:37:09;24.15;;;5.97;;
18501;SDS011;68437;52.236;5.710;2023-03-31T09:39:36;24.42;;;5.20;;
18501;SDS011;68437;52.236;5.710;2023-03-31T09:42:05;20.65;;;5.82;;
18501;SDS011;68437;52.236;5.710;2023-03-31T09:44:36;22.98;;;5.50;;
18501;SDS011;68437;52.236;5.710;2023-03-31T09:47:04;25.45;;;6.10;;
18501;SDS011;68437;52.236;5.710;2023-03-31T09:49:35;26.65;;;5.80;;
18501;SDS011;68437;52.236;5.710;2023-03-31T09:52:04;27.75;;;5.65;;
18501;SDS011;68437;52.236;5.710;2023-03-31T09:54:38;25.50;;;5.28;;
18501;SDS011;68437;52.236;5.710;2023-03-31T09:57:15;32.55;;;5.85;;
18501;SDS011;68437;52.236;5.710;2023-03-31T09:59:49;30.45;;;5.72;;
18501;SDS011;68437;52.236;5.710;2023-03-31T10:02:23;33.85;;;6.18;;
18501;SDS011;68437;52.236;5.710;2023-03-31T10:04:58;28.15;;;5.65;;
18501;SDS011;68437;52.236;5.710;2023-03-31T10:07:25;31.92;;;5.38;;
18501;SDS011;68437;52.236;5.710;2023-03-31T10:09:53;32.97;;;6.00;;
18501;SDS011;68437;52.236;5.710;2023-03-31T10:12:23;26.88;;;5.45;;
18501;SDS011;68437;52.236;5.710;2023-03-31T10:14:53;26.50;;;5.47;;
18501;SDS011;68437;52.236;5.710;2023-03-31T10:17:28;26.27;;;5.47;;
18501;SDS011;68437;52.236;5.710;2023-03-31T10:19:59;23.85;;;5.55;;
18501;SDS011;68437;52.236;5.710;2023-03-31T10:22:31;26.52;;;5.20;;
18501;SDS011;68437;52.236;5.710;2023-03-31T10:25:07;27.73;;;5.38;;
18501;SDS011;68437;52.236;5.710;2023-03-31T10:27:37;25.67;;;5.57;;
18501;SDS011;68437;52.236;5.710;2023-03-31T10:30:08;25.40;;;5.38;;
18501;SDS011;68437;52.236;5.710;2023-03-31T10:32:37;27.77;;;5.82;;
18501;SDS011;68437;52.236;5.710;2023-03-31T10:35:07;21.77;;;4.28;;
18501;SDS011;68437;52.236;5.710;2023-03-31T10:37:44;25.17;;;5.10;;
18501;SDS011;68437;52.236;5.710;2023-03-31T10:40:14;23.17;;;4.60;;
18501;SDS011;68437;52.236;5.710;2023-03-31T10:42:48;23.98;;;4.60;;
18501;SDS011;68437;52.236;5.710;2023-03-31T10:45:26;20.77;;;3.97;;
18501;SDS011;68437;52.236;5.710;2023-03-31T10:47:57;23.98;;;4.60;;
18501;SDS011;68437;52.236;5.710;2023-03-31T10:50:26;24.27;;;4.95;;
18501;SDS011;68437;52.236;5.710;2023-03-31T10:52:59;25.20;;;4.47;;
18501;SDS011;68437;52.236;5.710;2023-03-31T10:55:31;25.85;;;3.95;;
18501;SDS011;68437;52.236;5.710;2023-03-31T10:58:04;28.70;;;4.38;;
18501;SDS011;68437;52.236;5.710;2023-03-31T11:00:42;18.63;;;3.70;;
18501;SDS011;68437;52.236;5.710;2023-03-31T11:06:19;22.08;;;3.40;;
18501;SDS011;68437;52.236;5.710;2023-03-31T11:08:51;20.02;;;3.47;;
18501;SDS011;68437;52.236;5.710;2023-03-31T11:11:32;21.95;;;3.65;;
18501;SDS011;68437;52.236;5.710;2023-03-31T11:14:15;21.85;;;3.22;;
18501;SDS011;68437;52.236;5.710;2023-03-31T11:16:48;18.58;;;3.30;;
18501;SDS011;68437;52.236;5.710;2023-03-31T11:19:23;18.40;;;3.17;;
18501;SDS011;68437;52.236;5.710;2023-03-31T11:22:01;18.17;;;3.28;;
18501;SDS011;68437;52.236;5.710;2023-03-31T11:27:46;18.60;;;3.38;;
18501;SDS011;68437;52.236;5.710;2023-03-31T11:30:26;15.80;;;3.30;;
18501;SDS011;68437;52.236;5.710;2023-03-31T11:32:59;18.90;;;3.08;;
18501;SDS011;68437;52.236;5.710;2023-03-31T11:35:44;22.83;;;7.05;;
18501;SDS011;68437;52.236;5.710;2023-03-31T11:38:26;23.00;;;3.78;;
18501;SDS011;68437;52.236;5.710;2023-03-31T11:41:02;21.40;;;4.95;;
18501;SDS011;68437;52.236;5.710;2023-03-31T11:43:34;17.52;;;3.55;;
18501;SDS011;68437;52.236;5.710;2023-03-31T11:46:07;15.70;;;4.30;;
18501;SDS011;68437;52.236;5.710;2023-03-31T11:48:39;18.08;;;4.35;;
18501;SDS011;68437;52.236;5.710;2023-03-31T11:51:12;21.73;;;3.42;;
18501;SDS011;68437;52.236;5.710;2023-03-31T11:53:43;19.65;;;3.22;;
18501;SDS011;68437;52.236;5.710;2023-03-31T11:56:12;17.70;;;3.28;;
18501;SDS011;68437;52.236;5.710;2023-03-31T11:58:43;21.17;;;3.60;;
18501;SDS011;68437;52.236;5.710;2023-03-31T12:01:19;21.52;;;3.60;;
18501;SDS011;68437;52.236;5.710;2023-03-31T12:03:52;14.57;;;3.45;;
18501;SDS011;68437;52.236;5.710;2023-03-31T12:06:26;16.33;;;3.78;;
18501;SDS011;68437;52.236;5.710;2023-03-31T12:09:00;21.10;;;4.07;;
18501;SDS011;68437;52.236;5.710;2023-03-31T12:11:33;15.57;;;3.40;;
18501;SDS011;68437;52.236;5.710;2023-03-31T12:14:08;16.15;;;3.58;;
18501;SDS011;68437;52.236;5.710;2023-03-31T12:16:47;21.10;;;4.05;;
18501;SDS011;68437;52.236;5.710;2023-03-31T12:19:17;22.15;;;3.88;;
18501;SDS011;68437;52.236;5.710;2023-03-31T12:21:48;22.42;;;3.60;;
18501;SDS011;68437;52.236;5.710;2023-03-31T12:24:18;21.85;;;4.30;;
18501;SDS011;68437;52.236;5.710;2023-03-31T12:26:49;21.65;;;4.65;;
18501;SDS011;68437;52.236;5.710;2023-03-31T12:29:27;21.70;;;3.65;;
18501;SDS011;68437;52.236;5.710;2023-03-31T12:32:00;23.45;;;4.32;;
18501;SDS011;68437;52.236;5.710;2023-03-31T12:34:29;24.63;;;4.50;;
18501;SDS011;68437;52.236;5.710;2023-03-31T12:37:03;19.88;;;4.10;;
18501;SDS011;68437;52.236;5.710;2023-03-31T12:39:50;28.45;;;4.57;;
18501;SDS011;68437;52.236;5.710;2023-03-31T12:42:35;22.10;;;4.40;;
18501;SDS011;68437;52.236;5.710;2023-03-31T12:45:10;27.33;;;4.80;;
18501;SDS011;68437;52.236;5.710;2023-03-31T12:47:47;24.35;;;4.25;;
18501;SDS011;68437;52.236;5.710;2023-03-31T12:50:30;21.00;;;4.32;;
18501;SDS011;68437;52.236;5.710;2023-03-31T12:53:09;23.45;;;5.07;;
18501;SDS011;68437;52.236;5.710;2023-03-31T12:55:41;22.33;;;4.18;;
18501;SDS011;68437;52.236;5.710;2023-03-31T13:01:05;22.73;;;3.80;;
18501;SDS011;68437;52.236;5.710;2023-03-31T13:03:36;27.38;;;4.20;;
18501;SDS011;68437;52.236;5.710;2023-03-31T13:09:38;24.17;;;4.13;;
18501;SDS011;68437;52.236;5.710;2023-03-31T13:12:07;28.30;;;3.97;;
18501;SDS011;68437;52.236;5.710;2023-03-31T13:14:38;27.08;;;4.00;;
18501;SDS011;68437;52.236;5.710;2023-03-31T13:17:11;22.98;;;3.80;;
18501;SDS011;68437;52.236;5.710;2023-03-31T13:19:47;21.52;;;3.83;;
18501;SDS011;68437;52.236;5.710;2023-03-31T13:22:28;22.20;;;4.35;;
18501;SDS011;68437;52.236;5.710;2023-03-31T13:27:58;19.98;;;3.63;;
18501;SDS011;68437;52.236;5.710;2023-03-31T13:30:51;20.50;;;3.97;;
18501;SDS011;68437;52.236;5.710;2023-03-31T13:33:22;20.75;;;3.67;;
18501;SDS011;68437;52.236;5.710;2023-03-31T13:35:56;15.65;;;3.35;;
18501;SDS011;68437;52.236;5.710;2023-03-31T13:38:42;14.82;;;3.08;;
18501;SDS011;68437;52.236;5.710;2023-03-31T13:41:22;15.65;;;3.55;;
18501;SDS011;68437;52.236;5.710;2023-03-31T13:44:00;18.48;;;3.55;;
18501;SDS011;68437;52.236;5.710;2023-03-31T13:46:50;14.55;;;3.13;;
18501;SDS011;68437;52.236;5.710;2023-03-31T13:49:55;16.45;;;3.67;;
18501;SDS011;68437;52.236;5.710;2023-03-31T13:52:35;18.25;;;3.70;;
18501;SDS011;68437;52.236;5.710;2023-03-31T13:55:11;25.75;;;8.63;;
18501;SDS011;68437;52.236;5.710;2023-03-31T14:00:43;25.90;;;5.47;;
18501;SDS011;68437;52.236;5.710;2023-03-31T14:06:10;17.63;;;3.88;;
18501;SDS011;68437;52.236;5.710;2023-03-31T14:08:51;13.43;;;3.78;;
18501;SDS011;68437;52.236;5.710;2023-03-31T14:11:21;22.98;;;4.28;;
18501;SDS011;68437;52.236;5.710;2023-03-31T14:13:59;23.83;;;7.97;;
18501;SDS011;68437;52.236;5.710;2023-03-31T14:16:32;18.83;;;5.60;;
18501;SDS011;68437;52.236;5.710;2023-03-31T14:19:07;27.30;;;6.70;;
18501;SDS011;68437;52.236;5.710;2023-03-31T14:21:49;28.90;;;13.63;;
18501;SDS011;68437;52.236;5.710;2023-03-31T14:24:26;25.42;;;12.45;;
18501;SDS011;68437;52.236;5.710;2023-03-31T14:26:58;19.65;;;7.85;;
18501;SDS011;68437;52.236;5.710;2023-03-31T14:29:33;17.13;;;4.68;;
18501;SDS011;68437;52.236;5.710;2023-03-31T14:32:10;23.25;;;9.10;;
18501;SDS011;68437;52.236;5.710;2023-03-31T14:34:48;36.78;;;18.73;;
18501;SDS011;68437;52.236;5.710;2023-03-31T14:37:21;23.13;;;8.32;;
18501;SDS011;68437;52.236;5.710;2023-03-31T14:39:51;15.23;;;5.95;;
18501;SDS011;68437;52.236;5.710;2023-03-31T14:42:21;16.48;;;3.97;;
18501;SDS011;68437;52.236;5.710;2023-03-31T14:44:54;14.65;;;4.13;;
18501;SDS011;68437;52.236;5.710;2023-03-31T14:47:23;16.90;;;4.57;;
18501;SDS011;68437;52.236;5.710;2023-03-31T14:50:04;20.55;;;4.63;;
18501;SDS011;68437;52.236;5.710;2023-03-31T14:52:37;14.52;;;4.95;;
18501;SDS011;68437;52.236;5.710;2023-03-31T14:55:12;14.13;;;4.38;;
18501;SDS011;68437;52.236;5.710;2023-03-31T14:57:40;13.98;;;4.60;;
18501;SDS011;68437;52.236;5.710;2023-03-31T15:00:10;20.70;;;5.00;;
18501;SDS011;68437;52.236;5.710;2023-03-31T15:02:41;20.40;;;5.50;;
18501;SDS011;68437;52.236;5.710;2023-03-31T15:05:14;20.17;;;8.05;;
18501;SDS011;68437;52.236;5.710;2023-03-31T15:07:48;13.40;;;4.95;;
18501;SDS011;68437;52.236;5.710;2023-03-31T15:10:17;15.55;;;4.47;;
18501;SDS011;68437;52.236;5.710;2023-03-31T15:12:46;11.82;;;4.68;;
18501;SDS011;68437;52.236;5.710;2023-03-31T15:15:14;12.05;;;4.07;;
18501;SDS011;68437;52.236;5.710;2023-03-31T15:17:42;11.95;;;3.90;;
18501;SDS011;68437;52.236;5.710;2023-03-31T15:20:26;12.55;;;5.60;;
18501;SDS011;68437;52.236;5.710;2023-03-31T15:22:55;12.68;;;5.55;;
18501;SDS011;68437;52.236;5.710;2023-03-31T15:25:25;10.48;;;4.18;;
18501;SDS011;68437;52.236;5.710;2023-03-31T15:27:55;10.07;;;3.80;;
18501;SDS011;68437;52.236;5.710;2023-03-31T15:30:26;15.98;;;5.88;;
18501;SDS011;68437;52.236;5.710;2023-03-31T15:32:54;9.10;;;3.83;;
18501;SDS011;68437;52.236;5.710;2023-03-31T15:35:22;10.65;;;3.90;;